createdAt,value
2024-01-03T00:02:23.334Z,50.00
2024-01-03T00:04:52.026Z,49.57
2024-01-03T00:07:20.471Z,47.13
2024-01-03T00:09:48.855Z,43.10
2024-01-03T00:12:25.990Z,44.27
2024-01-03T00:14:54.311Z,43.90
2024-01-03T00:17:24.134Z,39.27
2024-01-03T00:19:57.287Z,36.33
2024-01-03T00:22:33.520Z,35.50
2024-01-03T00:25:06.413Z,39.97
2024-01-03T00:27:35.217Z,37.50
2024-01-03T00:30:08.431Z,43.33
2024-01-03T00:32:44.818Z,42.43
2024-01-03T00:35:16.647Z,38.50
2024-01-03T00:37:45.192Z,43.33
2024-01-03T00:40:57.097Z,37.93
2024-01-03T00:43:25.463Z,45.53
2024-01-03T00:45:53.909Z,43.57
2024-01-03T00:48:23.926Z,40.37
2024-01-03T00:50:52.601Z,41.33
2024-01-03T00:53:22.127Z,38.83
2024-01-03T00:55:52.010Z,47.47
2024-01-03T00:58:21.081Z,44.93
2024-01-03T01:00:50.756Z,45.57
2024-01-03T01:03:19.658Z,44.87
2024-01-03T01:05:49.527Z,42.20
2024-01-03T01:08:20.533Z,42.83
2024-01-03T01:10:49.250Z,40.83
2024-01-03T01:13:17.315Z,40.93
2024-01-03T01:15:45.449Z,45.67
2024-01-03T01:18:14.102Z,43.60
2024-01-03T01:20:42.502Z,40.17
2024-01-03T01:23:12.153Z,43.97
2024-01-03T01:25:40.357Z,39.10
2024-01-03T01:28:09.368Z,40.23
2024-01-03T01:30:37.683Z,40.53
2024-01-03T01:33:06.609Z,42.77
2024-01-03T01:35:34.853Z,38.57
2024-01-03T01:38:07.180Z,39.10
2024-01-03T01:40:36.896Z,37.83
2024-01-03T01:43:05.232Z,43.73
2024-01-03T01:45:33.837Z,43.33
2024-01-03T01:48:03.452Z,39.97
2024-01-03T01:50:32.054Z,39.63
2024-01-03T01:53:00.682Z,39.53
2024-01-03T01:55:29.440Z,39.40
2024-01-03T01:57:59.087Z,41.20
2024-01-03T02:00:27.416Z,36.80
2024-01-03T02:02:55.790Z,36.90
2024-01-03T02:05:24.145Z,39.17
2024-01-03T02:07:52.481Z,38.67
2024-01-03T02:10:20.611Z,29.17
2024-01-03T02:12:48.793Z,31.57
2024-01-03T02:15:18.355Z,33.17
2024-01-03T02:17:47.688Z,27.10
2024-01-03T02:20:16.418Z,24.27
2024-01-03T02:22:46.085Z,23.07
2024-01-03T02:25:14.239Z,26.80
2024-01-03T02:27:42.390Z,27.57
2024-01-03T02:30:11.365Z,25.20
2024-01-03T02:32:39.663Z,31.90
2024-01-03T02:35:08.352Z,33.00
2024-01-03T02:37:37.005Z,37.67
2024-01-03T02:40:07.815Z,38.27
2024-01-03T02:42:35.925Z,54.90
2024-01-03T02:45:04.123Z,55.47
2024-01-03T02:47:32.287Z,55.97
2024-01-03T02:50:00.859Z,72.03
2024-01-03T02:52:29.402Z,69.23
2024-01-03T02:54:57.496Z,64.40
2024-01-03T02:57:27.369Z,55.93
2024-01-03T02:59:55.959Z,55.40
2024-01-03T03:02:24.241Z,55.97
2024-01-03T03:04:52.557Z,51.77
2024-01-03T03:07:20.818Z,56.20
2024-01-03T03:09:48.962Z,45.67
2024-01-03T03:12:17.143Z,47.27
2024-01-03T03:14:46.969Z,42.47
2024-01-03T03:17:15.432Z,43.30
2024-01-03T03:19:43.630Z,45.70
2024-01-03T03:22:11.787Z,35.03
2024-01-03T03:24:39.933Z,38.63
2024-01-03T03:27:08.112Z,34.30
2024-01-03T03:29:36.347Z,34.80
2024-01-03T03:32:06.530Z,29.57
2024-01-03T03:34:34.976Z,30.33
2024-01-03T03:37:03.273Z,28.30
2024-01-03T03:39:31.541Z,32.50
2024-01-03T03:41:59.711Z,29.60
2024-01-03T03:44:27.945Z,26.90
2024-01-03T03:46:56.019Z,27.33
2024-01-03T03:49:25.559Z,29.33
2024-01-03T03:51:53.736Z,25.97
2024-01-03T03:54:21.979Z,25.27
2024-01-03T03:56:50.597Z,25.63
2024-01-03T03:59:18.900Z,25.97
2024-01-03T04:01:50.859Z,26.63
2024-01-03T04:04:20.072Z,24.40
2024-01-03T04:06:49.908Z,25.07
2024-01-03T04:09:20.453Z,24.10
2024-01-03T04:11:48.718Z,25.20
2024-01-03T04:14:16.842Z,24.97
2024-01-03T04:16:45.211Z,24.23
2024-01-03T04:19:13.368Z,25.43
2024-01-03T04:21:41.979Z,25.13
2024-01-03T04:24:11.559Z,22.50
2024-01-03T04:26:39.717Z,21.67
2024-01-03T04:29:09.240Z,20.97
2024-01-03T04:31:37.463Z,21.47
2024-01-03T04:34:05.833Z,18.63
2024-01-03T04:36:34.099Z,21.07
2024-01-03T04:39:02.548Z,22.27
2024-01-03T04:41:32.409Z,21.97
2024-01-03T04:44:01.009Z,22.07
2024-01-03T04:46:29.161Z,21.03
2024-01-03T04:48:57.542Z,23.43
2024-01-03T04:51:25.889Z,26.00
2024-01-03T04:53:54.123Z,25.63
2024-01-03T04:56:23.206Z,23.37
2024-01-03T04:58:52.806Z,25.10
2024-01-03T05:01:21.126Z,27.13
2024-01-03T05:03:49.330Z,24.23
2024-01-03T05:06:17.589Z,26.60
2024-01-03T05:08:45.855Z,31.73
2024-01-03T05:11:17.271Z,21.90
2024-01-03T05:13:45.843Z,24.53
2024-01-03T05:16:15.692Z,24.67
2024-01-03T05:18:43.992Z,24.57
2024-01-03T05:21:12.782Z,29.93
2024-01-03T05:23:40.992Z,26.33
2024-01-03T05:26:09.144Z,27.97
2024-01-03T05:28:37.341Z,28.17
2024-01-03T05:31:05.770Z,25.97
2024-01-03T05:33:35.519Z,26.27
2024-01-03T05:36:05.949Z,25.83
2024-01-03T05:38:36.894Z,24.73
2024-01-03T05:41:08.193Z,27.63
2024-01-03T05:43:37.351Z,24.37
2024-01-03T05:46:05.806Z,24.07
2024-01-03T05:48:36.607Z,21.40
2024-01-03T05:51:05.842Z,27.67
2024-01-03T05:53:34.140Z,24.33
2024-01-03T05:56:03.216Z,21.33
2024-01-03T05:58:31.360Z,24.10
2024-01-03T06:00:59.732Z,22.37
2024-01-03T06:03:27.834Z,19.73
2024-01-03T06:05:57.566Z,21.87
2024-01-03T06:08:25.884Z,19.10
2024-01-03T06:10:54.401Z,21.63
2024-01-03T06:13:23.714Z,21.90
2024-01-03T06:15:51.900Z,20.67
2024-01-03T06:18:20.337Z,21.60
2024-01-03T06:20:48.702Z,20.37
2024-01-03T06:23:18.441Z,19.53
2024-01-03T06:25:46.678Z,20.57
2024-01-03T06:28:15.488Z,19.43
2024-01-03T06:30:44.547Z,18.97
2024-01-03T06:33:13.056Z,22.13
2024-01-03T06:35:41.336Z,19.73
2024-01-03T06:38:09.848Z,21.87
2024-01-03T06:40:39.548Z,25.73
2024-01-03T06:43:08.622Z,22.40
2024-01-03T06:45:37.171Z,26.17
2024-01-03T06:48:05.819Z,23.53
2024-01-03T06:50:36.108Z,25.23
2024-01-03T06:53:04.459Z,26.97
2024-01-03T06:55:35.178Z,22.33
2024-01-03T06:58:05.324Z,22.50
2024-01-03T07:00:33.555Z,20.03
2024-01-03T07:03:01.773Z,21.63
2024-01-03T07:05:30.032Z,23.83
2024-01-03T07:07:59.409Z,24.07
2024-01-03T07:10:32.601Z,23.40
2024-01-03T07:13:01.186Z,27.33
2024-01-03T07:15:31.191Z,26.70
2024-01-03T07:18:00.818Z,28.17
2024-01-03T07:20:29.509Z,25.87
2024-01-03T07:22:57.768Z,27.40
2024-01-03T07:25:25.892Z,24.30
2024-01-03T07:27:54.158Z,26.17
2024-01-03T07:30:27.329Z,28.37
2024-01-03T07:32:59.148Z,26.77
2024-01-03T07:35:27.831Z,49.43
2024-01-03T07:37:56.820Z,72.10
2024-01-03T07:40:25.178Z,84.07
2024-01-03T07:42:53.486Z,59.27
2024-01-03T07:45:21.751Z,49.40
2024-01-03T07:47:50.054Z,38.70
2024-01-03T07:50:21.240Z,36.37
2024-01-03T07:52:49.525Z,29.63
2024-01-03T07:55:17.802Z,31.50
2024-01-03T07:57:46.555Z,31.07
2024-01-03T08:00:18.556Z,29.83
2024-01-03T08:02:46.767Z,35.00
2024-01-03T08:05:15.206Z,31.10
2024-01-03T08:07:47.342Z,37.80
2024-01-03T08:10:15.667Z,62.60
2024-01-03T08:12:44.076Z,61.67
2024-01-03T08:15:12.328Z,67.17
2024-01-03T08:17:40.693Z,63.97
2024-01-03T08:20:11.107Z,67.73
2024-01-03T08:22:39.520Z,62.17
2024-01-03T08:25:11.741Z,46.07
2024-01-03T08:27:40.418Z,41.57
2024-01-03T08:30:09.838Z,33.27
2024-01-03T08:32:39.005Z,29.53
2024-01-03T08:35:07.508Z,29.43
2024-01-03T08:37:35.746Z,27.73
2024-01-03T08:40:06.981Z,26.70
2024-01-03T08:42:37.345Z,26.13
2024-01-03T08:45:07.566Z,24.50
2024-01-03T08:47:36.781Z,29.23
2024-01-03T08:50:05.554Z,23.67
2024-01-03T08:52:33.915Z,24.27
2024-01-03T08:55:02.198Z,25.73
2024-01-03T08:57:32.001Z,24.33
2024-01-03T09:00:01.922Z,22.53
2024-01-03T09:02:30.307Z,29.57
2024-01-03T09:04:58.419Z,25.27
2024-01-03T09:07:26.537Z,26.40
2024-01-03T09:09:54.827Z,32.00
2024-01-03T09:12:25.793Z,27.37
2024-01-03T09:14:54.009Z,29.50
2024-01-03T09:17:23.606Z,28.53
2024-01-03T09:19:51.834Z,29.00
2024-01-03T09:22:20.565Z,31.93
2024-01-03T09:24:48.774Z,27.77
2024-01-03T09:27:16.957Z,27.50
2024-01-03T09:29:45.220Z,28.20
2024-01-03T09:32:13.372Z,29.43
2024-01-03T09:34:42.959Z,29.13
2024-01-03T09:37:11.590Z,27.67
2024-01-03T09:39:39.672Z,24.83
2024-01-03T09:42:09.200Z,26.63
2024-01-03T09:44:37.989Z,25.77
2024-01-03T09:47:07.964Z,24.30
2024-01-03T09:49:36.720Z,26.20
2024-01-03T09:52:12.622Z,23.47
2024-01-03T09:54:42.009Z,23.77
2024-01-03T09:57:12.579Z,24.50
2024-01-03T09:59:40.818Z,25.73
2024-01-03T10:02:10.541Z,23.53
2024-01-03T10:04:38.732Z,24.83
2024-01-03T10:07:08.248Z,25.57
2024-01-03T10:09:45.690Z,31.73
2024-01-03T10:12:19.197Z,28.47
2024-01-03T10:14:48.114Z,31.23
2024-01-03T10:17:16.400Z,29.40
2024-01-03T10:19:44.839Z,29.83
2024-01-03T10:22:20.515Z,30.17
2024-01-03T10:24:48.716Z,29.97
2024-01-03T10:27:17.355Z,30.67
2024-01-03T10:29:46.070Z,27.67
2024-01-03T10:32:17.163Z,27.30
2024-01-03T10:34:45.490Z,29.20
2024-01-03T10:37:15.848Z,28.30
2024-01-03T10:39:45.780Z,33.23
2024-01-03T10:42:14.530Z,34.30
2024-01-03T10:44:45.677Z,35.27
2024-01-03T10:47:13.919Z,33.47
2024-01-03T10:49:42.099Z,34.30
2024-01-03T10:52:12.215Z,33.43
2024-01-03T10:54:50.934Z,32.07
2024-01-03T10:57:24.494Z,37.03
2024-01-03T11:00:01.858Z,32.40
2024-01-03T11:02:38.104Z,35.10
2024-01-03T11:05:15.738Z,31.93
2024-01-03T11:07:51.502Z,29.80
2024-01-03T11:10:52.612Z,26.90
2024-01-03T11:13:30.627Z,26.47
2024-01-03T11:15:59.696Z,25.63
2024-01-03T11:18:53.985Z,28.70
2024-01-03T11:21:43.570Z,24.90
2024-01-03T11:24:55.409Z,28.17
2024-01-03T11:27:26.616Z,23.87
2024-01-03T11:29:59.038Z,24.03
2024-01-03T11:32:35.765Z,25.30
2024-01-03T11:35:11.075Z,26.80
2024-01-03T11:37:41.385Z,25.73
2024-01-03T11:40:20.937Z,28.23
2024-01-03T11:42:59.411Z,25.50
2024-01-03T11:45:28.281Z,23.80
2024-01-03T11:47:58.525Z,22.30
2024-01-03T11:50:35.496Z,24.20
2024-01-03T11:53:10.557Z,22.70
2024-01-03T11:55:39.276Z,22.83
2024-01-03T11:58:09.598Z,21.20
2024-01-03T12:00:37.962Z,20.23
2024-01-03T12:03:07.017Z,18.90
2024-01-03T12:05:46.749Z,18.53
2024-01-03T12:08:15.857Z,19.50
2024-01-03T12:10:44.290Z,19.13
2024-01-03T12:13:16.848Z,20.57
2024-01-03T12:15:51.920Z,20.73
2024-01-03T12:18:23.959Z,20.20
2024-01-03T12:20:55.710Z,20.80
2024-01-03T12:23:23.968Z,24.03
2024-01-03T12:25:54.442Z,22.30
2024-01-03T12:28:25.009Z,20.07
2024-01-03T12:30:53.521Z,21.40
2024-01-03T12:33:26.410Z,20.23
2024-01-03T12:36:00.217Z,20.17
2024-01-03T12:38:28.626Z,21.53
2024-01-03T12:40:59.360Z,19.83
2024-01-03T12:43:30.613Z,17.90
2024-01-03T12:45:59.567Z,17.20
2024-01-03T12:48:28.361Z,17.53
2024-01-03T12:50:56.823Z,19.73
2024-01-03T12:53:25.522Z,16.73
2024-01-03T12:55:54.489Z,17.77
2024-01-03T12:58:22.832Z,17.40
2024-01-03T13:00:52.645Z,20.67
2024-01-03T13:03:21.932Z,24.57
2024-01-03T13:05:50.286Z,38.43
2024-01-03T13:08:18.876Z,29.30
2024-01-03T13:10:47.541Z,27.57
2024-01-03T13:13:15.697Z,25.40
2024-01-03T13:15:47.206Z,28.30
2024-01-03T13:18:17.455Z,23.80
2024-01-03T13:20:45.809Z,25.30
2024-01-03T13:23:14.654Z,24.23
2024-01-03T13:25:43.096Z,23.83
2024-01-03T13:28:12.228Z,24.33
2024-01-03T13:30:41.195Z,26.77
2024-01-03T13:33:10.064Z,27.17
2024-01-03T13:35:40.096Z,23.83
2024-01-03T13:38:09.063Z,25.47
2024-01-03T13:40:37.963Z,21.43
2024-01-03T13:43:06.375Z,18.43
2024-01-03T13:45:34.665Z,17.03
2024-01-03T13:48:03.554Z,20.47
2024-01-03T13:50:32.025Z,17.53
2024-01-03T13:53:01.728Z,19.20
2024-01-03T13:55:30.169Z,18.37
2024-01-03T13:58:01.663Z,18.97
2024-01-03T14:00:31.878Z,17.50
2024-01-03T14:03:00.222Z,14.40
2024-01-03T14:05:28.717Z,13.70
2024-01-03T14:07:56.971Z,15.07
2024-01-03T14:10:26.614Z,15.97
2024-01-03T14:12:55.392Z,17.40
2024-01-03T14:15:24.261Z,14.33
2024-01-03T14:17:52.627Z,15.90
2024-01-03T14:20:20.902Z,16.23
2024-01-03T14:22:49.056Z,19.43
2024-01-03T14:25:17.373Z,21.20
2024-01-03T14:27:46.999Z,22.07
2024-01-03T14:30:17.905Z,18.97
2024-01-03T14:32:47.037Z,22.17
2024-01-03T14:35:17.047Z,21.63
2024-01-03T14:37:45.475Z,16.80
2024-01-03T14:40:16.530Z,14.33
2024-01-03T14:42:49.462Z,15.50
2024-01-03T14:45:18.335Z,15.40
2024-01-03T14:47:47.529Z,16.87
2024-01-03T14:50:16.123Z,19.63
2024-01-03T14:52:44.544Z,17.30
2024-01-03T14:55:13.435Z,18.33
2024-01-03T14:57:42.081Z,22.00
2024-01-03T15:00:15.173Z,16.77
2024-01-03T15:02:55.223Z,22.33
2024-01-03T15:05:33.184Z,18.90
2024-01-03T15:08:01.804Z,31.70
2024-01-03T15:10:30.036Z,28.03
2024-01-03T15:12:58.302Z,26.70
2024-01-03T15:15:27.851Z,26.93
2024-01-03T15:17:56.368Z,24.00
2024-01-03T15:20:24.941Z,28.00
2024-01-03T15:22:53.198Z,24.70
2024-01-03T15:25:21.318Z,26.30
2024-01-03T15:27:49.928Z,27.70
2024-01-03T15:30:18.991Z,27.40
2024-01-03T15:32:49.201Z,25.17
2024-01-03T15:35:17.407Z,27.97
2024-01-03T15:37:45.601Z,27.73
2024-01-03T15:40:17.815Z,29.60
2024-01-03T15:42:47.477Z,35.20
2024-01-03T15:45:16.059Z,30.60
2024-01-03T15:47:49.142Z,27.13
2024-01-03T15:50:19.363Z,29.67
2024-01-03T15:52:47.541Z,29.03
2024-01-03T15:55:17.146Z,28.83
2024-01-03T15:57:47.911Z,30.07
2024-01-03T16:00:17.139Z,27.47
2024-01-03T16:02:45.474Z,27.70
2024-01-03T16:05:13.693Z,28.23
2024-01-03T16:07:43.364Z,29.63
2024-01-03T16:10:11.605Z,24.67
2024-01-03T16:12:39.718Z,28.73
2024-01-03T16:15:08.292Z,29.77
2024-01-03T16:17:37.811Z,28.80
2024-01-03T16:20:09.454Z,34.33
2024-01-03T16:22:38.626Z,31.60
2024-01-03T16:25:12.556Z,26.93
2024-01-03T16:27:42.755Z,28.27
2024-01-03T16:30:13.003Z,30.17
2024-01-03T16:32:42.835Z,26.13
2024-01-03T16:35:14.003Z,28.67
2024-01-03T16:37:44.227Z,26.77
2024-01-03T16:40:14.926Z,29.20
2024-01-03T16:42:45.921Z,58.90
2024-01-03T16:45:15.706Z,64.87
2024-01-03T16:47:46.356Z,60.27
2024-01-03T16:50:14.939Z,54.83
2024-01-03T16:52:43.749Z,48.70
2024-01-03T16:55:13.493Z,66.70
2024-01-03T16:57:42.808Z,46.27
2024-01-03T17:00:13.063Z,39.43
2024-01-03T17:02:41.613Z,46.10
2024-01-03T17:05:12.306Z,44.67
2024-01-03T17:07:42.283Z,43.73
2024-01-03T17:10:11.150Z,43.37
2024-01-03T17:12:40.758Z,37.90
2024-01-03T17:15:12.865Z,31.90
2024-01-03T17:17:42.984Z,50.07
2024-01-03T17:20:12.861Z,44.70
2024-01-03T17:22:41.039Z,46.70
2024-01-03T17:25:10.359Z,38.10
2024-01-03T17:27:39.274Z,40.90
2024-01-03T17:30:15.597Z,35.30
2024-01-03T17:32:44.749Z,33.10
2024-01-03T17:35:13.037Z,29.23
2024-01-03T17:37:41.657Z,31.47
2024-01-03T17:40:12.528Z,25.90
2024-01-03T17:42:40.972Z,38.13
2024-01-03T17:45:11.920Z,24.37
2024-01-03T17:47:40.623Z,29.30
2024-01-03T17:50:10.011Z,28.63
2024-01-03T17:52:38.488Z,34.90
2024-01-03T17:55:07.186Z,27.40
2024-01-03T17:57:36.924Z,31.70
2024-01-03T18:00:06.193Z,37.10
2024-01-03T18:02:36.624Z,35.27
2024-01-03T18:05:05.782Z,32.03
2024-01-03T18:07:34.543Z,30.57
2024-01-03T18:10:04.297Z,27.43
2024-01-03T18:12:32.722Z,29.73
2024-01-03T18:15:01.696Z,23.97
2024-01-03T18:17:30.134Z,24.67
2024-01-03T18:20:02.086Z,24.37
2024-01-03T18:22:33.543Z,25.00
2024-01-03T18:25:03.469Z,25.53
2024-01-03T18:27:32.037Z,24.57
2024-01-03T18:30:00.513Z,20.60
2024-01-03T18:32:29.174Z,24.80
2024-01-03T18:34:59.123Z,27.10
2024-01-03T18:37:29.157Z,22.93
2024-01-03T18:39:58.058Z,26.50
2024-01-03T18:42:26.487Z,28.40
2024-01-03T18:44:55.066Z,27.97
2024-01-03T18:47:23.670Z,28.33
2024-01-03T18:49:52.650Z,24.90
2024-01-03T18:52:22.047Z,27.37
2024-01-03T18:54:51.706Z,25.63
2024-01-03T18:57:20.508Z,32.30
2024-01-03T18:59:50.639Z,24.30
2024-01-03T19:02:19.805Z,28.73
2024-01-03T19:04:48.964Z,24.33
2024-01-03T19:07:17.285Z,27.67
2024-01-03T19:09:46.081Z,21.20
2024-01-03T19:12:16.699Z,26.40
2024-01-03T19:17:29.192Z,29.87
2024-01-03T19:19:57.712Z,29.37
2024-01-03T19:22:26.623Z,29.30
2024-01-03T19:24:55.753Z,19.27
2024-01-03T19:27:26.481Z,31.27
2024-01-03T19:29:54.955Z,35.00
2024-01-03T19:32:23.240Z,30.73
2024-01-03T19:34:51.547Z,27.60
2024-01-03T19:37:21.896Z,19.00
2024-01-03T19:39:50.499Z,22.47
2024-01-03T19:42:26.877Z,32.83
2024-01-03T19:44:57.389Z,21.67
2024-01-03T19:47:25.683Z,25.47
2024-01-03T19:49:54.586Z,26.17
2024-01-03T19:52:23.329Z,25.90
2024-01-03T19:54:51.421Z,22.67
2024-01-03T19:57:20.173Z,23.87
2024-01-03T19:59:50.953Z,23.67
2024-01-03T20:02:19.490Z,23.67
2024-01-03T20:04:47.757Z,30.57
2024-01-03T20:07:16.607Z,24.77
2024-01-03T20:09:45.185Z,31.07
2024-01-03T20:12:14.586Z,20.90
2024-01-03T20:14:42.950Z,53.37
2024-01-03T20:17:23.448Z,52.57
2024-01-03T20:19:53.074Z,43.47
2024-01-03T20:22:23.325Z,36.87
2024-01-03T20:24:59.185Z,41.07
2024-01-03T20:27:29.652Z,49.13
2024-01-03T20:29:58.029Z,40.37
2024-01-03T20:32:27.887Z,44.30
2024-01-03T20:34:57.316Z,40.10
2024-01-03T20:37:26.821Z,44.37
2024-01-03T20:39:55.404Z,40.87
2024-01-03T20:42:25.740Z,37.60
2024-01-03T20:44:54.041Z,43.60
2024-01-03T20:47:23.079Z,42.93
2024-01-03T20:49:56.089Z,40.83
2024-01-03T20:52:25.874Z,37.73
2024-01-03T20:54:54.389Z,41.60
2024-01-03T20:57:24.848Z,42.67
2024-01-03T20:59:55.013Z,50.57
2024-01-03T21:02:23.401Z,35.77
2024-01-03T21:04:53.310Z,41.83
2024-01-03T21:07:21.488Z,47.43
2024-01-03T21:09:49.808Z,57.67
2024-01-03T21:12:18.061Z,47.87
2024-01-03T21:14:46.399Z,44.40
2024-01-03T21:17:14.847Z,41.17
2024-01-03T21:19:43.276Z,49.17
2024-01-03T21:22:13.851Z,25.37
2024-01-03T21:24:43.103Z,22.50
2024-01-03T21:27:44.416Z,32.20
2024-01-03T21:30:00.317Z,59.73
2024-01-03T21:32:28.621Z,53.13
2024-01-03T21:34:57.962Z,23.57
2024-01-03T21:37:27.562Z,39.87
2024-01-03T21:39:56.328Z,39.93
2024-01-03T21:42:24.815Z,41.17
2024-01-03T21:44:53.146Z,45.50
2024-01-03T21:47:21.376Z,43.87
2024-01-03T21:49:49.499Z,45.50
2024-01-03T21:52:17.719Z,59.63
2024-01-03T21:54:47.436Z,49.77
2024-01-03T21:57:17.519Z,56.67
2024-01-03T21:59:46.632Z,50.10
2024-01-03T22:02:14.901Z,47.10
2024-01-03T22:04:45.699Z,52.67
2024-01-03T22:07:13.821Z,51.37
2024-01-03T22:09:41.925Z,68.73
2024-01-03T22:12:11.790Z,48.53
2024-01-03T22:14:47.067Z,51.27
2024-01-03T22:17:16.417Z,47.93
2024-01-03T22:19:45.543Z,53.17
2024-01-03T22:22:13.871Z,43.97
2024-01-03T22:24:42.061Z,51.60
2024-01-03T22:27:11.792Z,42.60
2024-01-03T22:29:40.949Z,44.40
2024-01-03T22:32:09.191Z,43.90
2024-01-03T22:34:40.428Z,47.00
2024-01-03T22:37:10.038Z,47.63
2024-01-03T22:39:38.187Z,35.20
2024-01-03T22:42:06.846Z,47.03
2024-01-03T22:44:36.723Z,43.93
2024-01-03T22:47:07.796Z,36.87
2024-01-03T22:49:37.011Z,33.80
2024-01-03T22:52:08.719Z,35.77
2024-01-03T22:54:38.498Z,34.90
2024-01-03T22:57:07.568Z,33.20
2024-01-03T22:59:37.771Z,35.10
2024-01-03T23:02:06.480Z,39.87
2024-01-03T23:04:34.627Z,35.70
2024-01-03T23:07:03.111Z,33.20
2024-01-03T23:09:31.478Z,33.17
2024-01-03T23:11:59.734Z,33.23
2024-01-03T23:14:27.893Z,37.07
2024-01-03T23:17:06.449Z,28.87
2024-01-03T23:19:43.678Z,41.77
2024-01-03T23:22:12.325Z,37.63
2024-01-03T23:24:40.499Z,31.97
2024-01-03T23:27:08.718Z,29.13
2024-01-03T23:29:36.926Z,27.90
2024-01-03T23:32:06.973Z,23.40
2024-01-03T23:34:35.256Z,23.80
2024-01-03T23:37:03.364Z,24.93
2024-01-03T23:39:31.544Z,23.40
2024-01-03T23:41:59.718Z,24.43
2024-01-03T23:44:27.844Z,27.83
2024-01-03T23:46:56.165Z,31.30
2024-01-03T23:49:25.758Z,31.33
2024-01-03T23:51:54.123Z,29.20
2024-01-03T23:54:22.219Z,25.33
2024-01-03T23:56:50.866Z,42.87
2024-01-03T23:59:19.012Z,30.27
